Time;durP1;ratioP1;P1;durP2;ratioP2;P2;SDS_P1;SDS_P2;PMS_P1;PMS_P2;Temp;Humidity;BMP_temperature;BMP_pressure;BME280_temperature;BME280_humidity;BME280_pressure;Samples;Min_cycle;Max_cycle;Signal;HPM_P1;HPM_P2
2022/01/04 00:00:28;;;;;;;20.40;8.05;;;8.30;99.90;;;;;;5101489;28;20040;-82
2022/01/04 00:02:55;;;;;;;23.95;8.95;;;8.30;99.90;;;;;;5083083;28;20444;-82
2022/01/04 00:05:20;;;;;;;26.17;8.55;;;8.30;99.90;;;;;;5085341;28;20093;-82
2022/01/04 00:07:46;;;;;;;22.05;8.45;;;8.20;99.90;;;;;;5081232;28;20036;-82
2022/01/04 00:10:12;;;;;;;18.08;7.20;;;8.30;99.90;;;;;;5099957;28;20035;-82
2022/01/04 00:15:23;;;;;;;27.95;8.77;;;8.30;99.90;;;;;;5100187;28;20067;-82
2022/01/04 00:17:48;;;;;;;15.45;6.95;;;8.30;99.90;;;;;;5080668;28;20063;-82
2022/01/04 00:20:14;;;;;;;16.73;7.60;;;8.40;99.90;;;;;;5099879;28;20067;-82
2022/01/04 00:22:39;;;;;;;22.85;7.47;;;8.40;99.90;;;;;;5097434;28;20032;-83
2022/01/04 00:25:06;;;;;;;22.77;8.50;;;8.40;99.90;;;;;;5100315;28;20050;-82
2022/01/04 00:27:32;;;;;;;17.48;6.60;;;8.50;99.90;;;;;;5098251;28;20036;-82
2022/01/04 00:29:57;;;;;;;18.98;7.25;;;8.50;99.90;;;;;;5098254;28;20062;-82
2022/01/04 00:32:23;;;;;;;20.67;7.53;;;8.40;99.90;;;;;;5079471;28;20044;-82
2022/01/04 00:34:49;;;;;;;17.80;5.97;;;8.50;99.90;;;;;;5097319;28;20036;-83
2022/01/04 00:37:15;;;;;;;20.25;6.55;;;8.50;99.90;;;;;;5098126;28;20520;-83
2022/01/04 00:39:41;;;;;;;19.63;6.85;;;8.60;99.90;;;;;;5097771;28;20036;-82
2022/01/04 00:42:06;;;;;;;15.00;6.50;;;8.60;99.90;;;;;;5079204;28;20036;-84
2022/01/04 00:44:32;;;;;;;18.42;6.53;;;8.60;99.90;;;;;;5096840;28;20071;-82
2022/01/04 00:46:59;;;;;;;12.88;5.57;;;8.60;99.90;;;;;;5098207;28;20081;-82
2022/01/04 00:49:24;;;;;;;17.02;7.72;;;8.70;99.90;;;;;;5095685;28;20044;-82
2022/01/04 00:51:52;;;;;;;16.75;7.75;;;8.70;99.90;;;;;;5096627;28;20099;-82
2022/01/04 00:54:19;;;;;;;43.05;8.95;;;8.70;99.90;;;;;;5079334;28;20067;-82
2022/01/04 00:56:46;;;;;;;18.33;6.95;;;8.70;99.90;;;;;;5096578;28;20032;-82
2022/01/04 00:59:12;;;;;;;14.75;5.85;;;8.60;99.90;;;;;;5096377;28;20047;-82
2022/01/04 01:01:38;;;;;;;16.88;5.47;;;8.60;99.90;;;;;;5098467;28;20486;-83
2022/01/04 01:04:05;;;;;;;22.30;7.22;;;8.60;99.90;;;;;;5094606;28;20032;-82
2022/01/04 01:06:32;;;;;;;23.45;7.18;;;8.50;99.90;;;;;;5097052;28;20048;-82
2022/01/04 01:08:58;;;;;;;14.25;5.70;;;8.50;99.90;;;;;;5096123;28;20044;-82
2022/01/04 01:11:24;;;;;;;21.63;7.43;;;8.50;99.90;;;;;;5097206;28;20040;-83
2022/01/04 01:13:49;;;;;;;18.17;6.15;;;8.40;99.90;;;;;;5096652;28;20036;-82
2022/01/04 01:16:15;;;;;;;23.20;7.05;;;8.40;99.90;;;;;;5079465;28;20038;-82
2022/01/04 01:18:41;;;;;;;27.13;7.15;;;8.40;99.90;;;;;;5096729;28;20050;-81
2022/01/04 01:21:08;;;;;;;25.92;7.75;;;8.40;99.90;;;;;;5096253;28;20051;-82
2022/01/04 01:23:35;;;;;;;13.85;5.38;;;8.40;99.90;;;;;;5096472;28;20402;-81
2022/01/04 01:26:01;;;;;;;23.30;7.85;;;8.40;99.90;;;;;;5078090;28;20039;-83
2022/01/04 01:28:27;;;;;;;16.50;5.65;;;8.50;99.90;;;;;;5096130;28;20487;-83
2022/01/04 01:30:53;;;;;;;20.05;7.50;;;8.40;99.90;;;;;;5076458;28;20111;-82
2022/01/04 01:33:19;;;;;;;19.55;6.13;;;8.40;99.90;;;;;;5095061;28;20036;-81
2022/01/04 01:35:46;;;;;;;22.90;8.88;;;8.40;99.90;;;;;;5077468;28;20032;-83
2022/01/04 01:38:14;;;;;;;16.85;8.05;;;8.40;99.90;;;;;;5095784;28;20044;-82
2022/01/04 01:40:41;;;;;;;15.95;6.75;;;8.30;99.90;;;;;;5078659;28;20510;-83
2022/01/04 01:43:07;;;;;;;17.52;7.15;;;8.30;99.90;;;;;;5082832;28;20513;-82
2022/01/04 01:45:34;;;;;;;16.65;6.05;;;8.30;99.90;;;;;;5098405;28;20135;-82
2022/01/04 01:48:00;;;;;;;16.58;7.53;;;8.30;99.90;;;;;;5100423;28;20043;-82
2022/01/04 01:50:26;;;;;;;18.15;6.32;;;8.30;99.90;;;;;;5098536;28;20044;-82
2022/01/04 01:52:52;;;;;;;19.63;6.55;;;8.20;99.90;;;;;;5100970;28;20040;-82
2022/01/04 01:55:20;;;;;;;20.75;7.43;;;8.20;99.90;;;;;;5098650;28;20036;-82
2022/01/04 01:57:46;;;;;;;22.92;8.15;;;8.20;99.90;;;;;;5083613;28;20509;-82
2022/01/04 02:00:14;;;;;;;17.08;7.00;;;8.20;99.90;;;;;;5098823;28;20432;-82
2022/01/04 02:02:40;;;;;;;16.00;7.60;;;8.20;99.90;;;;;;5099894;28;20079;-82
2022/01/04 02:05:07;;;;;;;17.35;7.30;;;8.10;99.90;;;;;;5081924;28;20065;-83
2022/01/04 02:07:33;;;;;;;16.52;8.60;;;8.10;99.90;;;;;;5082538;28;20071;-82
2022/01/04 02:10:03;;;;;;;14.98;7.20;;;8.10;99.90;;;;;;5099616;28;20039;-82
2022/01/04 02:12:40;;;;;;;23.67;7.82;;;8.10;99.90;;;;;;5098590;28;20040;-82
2022/01/04 02:15:10;;;;;;;16.05;7.60;;;8.10;99.90;;;;;;5082213;28;20421;-81
2022/01/04 02:17:36;;;;;;;17.60;7.40;;;8.10;99.90;;;;;;5081755;28;20036;-82
2022/01/04 02:20:04;;;;;;;16.73;7.57;;;8.10;99.90;;;;;;5100598;28;20550;-82
2022/01/04 02:22:31;;;;;;;21.30;8.18;;;8.20;99.90;;;;;;5097910;28;20390;-82
2022/01/04 02:24:57;;;;;;;14.02;7.53;;;8.30;99.90;;;;;;5098891;28;20119;-82
2022/01/04 02:27:24;;;;;;;23.85;8.35;;;8.30;99.90;;;;;;5097394;28;20358;-82
2022/01/04 02:29:50;;;;;;;20.77;8.05;;;8.40;99.90;;;;;;5099076;28;20032;-82
2022/01/04 02:32:16;;;;;;;20.85;8.13;;;8.40;99.90;;;;;;5097379;28;20044;-82
2022/01/04 02:34:47;;;;;;;26.23;10.30;;;8.40;99.90;;;;;;5097867;28;20089;-82
2022/01/04 02:37:17;;;;;;;21.30;9.65;;;8.50;99.90;;;;;;5097689;28;20046;-82
2022/01/04 02:39:42;;;;;;;21.58;9.93;;;8.50;99.90;;;;;;5081212;28;20044;-82
2022/01/04 02:42:09;;;;;;;22.30;8.57;;;8.50;99.90;;;;;;5081922;28;20046;-83
2022/01/04 02:44:34;;;;;;;19.83;9.23;;;8.50;99.90;;;;;;5097911;28;20036;-82
2022/01/04 02:47:00;;;;;;;24.58;9.48;;;8.50;99.90;;;;;;5098732;28;20372;-82
2022/01/04 02:49:25;;;;;;;16.55;9.13;;;8.50;99.90;;;;;;5097570;28;20118;-82
2022/01/04 02:51:51;;;;;;;27.58;9.95;;;8.50;99.90;;;;;;5097415;28;20040;-82
2022/01/04 02:54:17;;;;;;;31.58;10.68;;;8.40;99.90;;;;;;5096386;28;20123;-82
2022/01/04 02:56:43;;;;;;;18.25;8.95;;;8.40;99.90;;;;;;5081602;28;20165;-82
2022/01/04 02:59:09;;;;;;;22.73;9.82;;;8.30;99.90;;;;;;5101034;28;20067;-81
2022/01/04 03:01:34;;;;;;;19.48;9.50;;;8.30;99.90;;;;;;5102905;28;20099;-83
2022/01/04 03:04:00;;;;;;;24.00;10.02;;;8.30;99.90;;;;;;5097525;28;20050;-82
2022/01/04 03:06:25;;;;;;;19.27;8.55;;;8.30;99.90;;;;;;5098322;28;20032;-81
2022/01/04 03:08:51;;;;;;;21.67;8.85;;;8.30;99.90;;;;;;5096704;28;20061;-82
2022/01/04 03:11:17;;;;;;;22.23;8.38;;;8.30;99.90;;;;;;5099484;28;20043;-82
2022/01/04 03:13:42;;;;;;;30.17;9.90;;;8.30;99.90;;;;;;5097782;28;20040;-82
2022/01/04 03:16:09;;;;;;;18.60;8.95;;;8.30;99.90;;;;;;5097589;28;20402;-82
2022/01/04 03:18:41;;;;;;;19.55;7.05;;;8.30;99.90;;;;;;5097172;28;20447;-81
2022/01/04 03:21:07;;;;;;;24.77;9.43;;;8.30;99.90;;;;;;5097628;28;20165;-82
2022/01/04 03:23:32;;;;;;;21.30;9.63;;;8.30;99.90;;;;;;5080250;28;20564;-82
2022/01/04 03:25:58;;;;;;;19.02;8.35;;;8.20;99.90;;;;;;5080661;28;20101;-81
2022/01/04 03:28:23;;;;;;;24.02;9.98;;;8.20;99.90;;;;;;5097286;28;20047;-82
2022/01/04 03:30:49;;;;;;;13.23;8.18;;;8.20;99.90;;;;;;5097730;28;20050;-82
2022/01/04 03:33:15;;;;;;;23.52;8.77;;;8.20;99.90;;;;;;5081148;28;20024;-81
2022/01/04 03:35:40;;;;;;;20.48;11.25;;;8.20;99.90;;;;;;5096442;28;20127;-82
2022/01/04 03:38:06;;;;;;;21.15;9.18;;;8.20;99.90;;;;;;5097029;28;20088;-82
2022/01/04 03:40:31;;;;;;;18.77;8.90;;;8.20;99.90;;;;;;5095774;28;20048;-82
2022/01/04 03:42:57;;;;;;;22.63;9.07;;;8.20;99.90;;;;;;5098360;28;20039;-82
2022/01/04 03:45:23;;;;;;;21.00;9.07;;;8.20;99.90;;;;;;5096135;28;20576;-82
2022/01/04 03:47:48;;;;;;;23.33;9.75;;;8.10;99.90;;;;;;5097652;28;20040;-82
2022/01/04 03:50:14;;;;;;;30.20;11.70;;;8.20;99.90;;;;;;5096816;28;20071;-82
2022/01/04 03:52:40;;;;;;;15.15;8.27;;;8.20;99.90;;;;;;5080140;28;20494;-82
2022/01/04 03:55:07;;;;;;;28.65;11.32;;;8.10;99.90;;;;;;5095188;28;20039;-82
2022/01/04 03:57:33;;;;;;;30.48;10.40;;;8.10;99.90;;;;;;5080861;28;20047;-81
2022/01/04 03:59:59;;;;;;;18.23;9.27;;;8.10;99.90;;;;;;5079100;28;20036;-82
2022/01/04 04:02:25;;;;;;;20.52;10.50;;;8.00;99.90;;;;;;5096794;28;20171;-82
2022/01/04 04:04:50;;;;;;;25.25;10.63;;;8.00;99.90;;;;;;5078345;28;20044;-82
2022/01/04 04:07:16;;;;;;;22.15;12.18;;;8.00;99.90;;;;;;5096856;28;20040;-82
2022/01/04 04:09:41;;;;;;;21.75;10.15;;;8.00;99.90;;;;;;5079659;28;20044;-82
2022/01/04 04:12:09;;;;;;;25.85;11.70;;;8.00;99.90;;;;;;5097280;28;20498;-82
2022/01/04 04:14:35;;;;;;;24.88;10.98;;;8.00;99.90;;;;;;5079112;28;20032;-82
2022/01/04 04:17:00;;;;;;;18.98;10.10;;;8.00;99.90;;;;;;5104553;28;20066;-81
2022/01/04 04:19:26;;;;;;;27.55;11.52;;;8.00;99.90;;;;;;5110779;28;20474;-83
2022/01/04 04:21:51;;;;;;;24.20;11.45;;;8.00;99.90;;;;;;5094957;28;20048;-83
2022/01/04 04:24:17;;;;;;;26.13;11.45;;;8.00;99.90;;;;;;5112818;28;20062;-83
2022/01/04 04:26:43;;;;;;;22.70;11.85;;;8.00;99.90;;;;;;5096897;28;20035;-81
2022/01/04 04:29:09;;;;;;;28.70;12.60;;;8.10;99.90;;;;;;5113256;28;20079;-82
2022/01/04 04:31:35;;;;;;;19.45;11.25;;;8.10;99.90;;;;;;5114448;28;20055;-83
2022/01/04 04:34:00;;;;;;;20.85;10.40;;;8.10;99.90;;;;;;5113056;28;20036;-83
2022/01/04 04:36:27;;;;;;;22.45;10.75;;;8.10;99.90;;;;;;5094146;28;20040;-82
2022/01/04 04:38:52;;;;;;;29.42;11.85;;;8.10;99.90;;;;;;5092502;28;20032;-83
2022/01/04 04:41:18;;;;;;;24.23;11.57;;;8.10;99.90;;;;;;5091879;28;20067;-82
2022/01/04 04:43:43;;;;;;;29.45;12.65;;;8.00;99.90;;;;;;5102868;28;20040;-83
2022/01/04 04:46:09;;;;;;;31.55;11.85;;;8.00;99.90;;;;;;5116431;28;20056;-83
2022/01/04 04:48:35;;;;;;;27.20;13.43;;;8.10;99.90;;;;;;5116750;28;20024;-80
2022/01/04 04:51:00;;;;;;;25.85;13.50;;;8.00;99.90;;;;;;5116727;28;20023;-83
2022/01/04 04:53:26;;;;;;;27.15;11.68;;;8.00;99.90;;;;;;5116898;28;20024;-81
2022/01/04 04:55:51;;;;;;;35.75;12.80;;;8.00;99.90;;;;;;5098677;28;20050;-82
2022/01/04 04:58:17;;;;;;;24.60;12.63;;;8.00;99.90;;;;;;5095209;28;20043;-83
2022/01/04 05:00:42;;;;;;;23.70;11.98;;;8.00;99.90;;;;;;5098940;28;20032;-83
2022/01/04 05:03:08;;;;;;;24.70;11.35;;;8.10;99.90;;;;;;5077860;28;20068;-83
2022/01/04 05:05:34;;;;;;;22.77;11.50;;;8.10;99.90;;;;;;5096384;28;20042;-82
2022/01/04 05:07:59;;;;;;;28.23;11.95;;;8.10;99.90;;;;;;5094288;28;20054;-82
2022/01/04 05:10:25;;;;;;;30.67;15.48;;;8.10;99.90;;;;;;5093538;28;20036;-83
2022/01/04 05:12:50;;;;;;;26.00;14.18;;;8.10;99.90;;;;;;5092917;28;20043;-82
2022/01/04 05:15:16;;;;;;;31.92;14.63;;;8.10;99.90;;;;;;5075686;28;20036;-82
2022/01/04 05:17:42;;;;;;;39.65;16.80;;;8.10;99.90;;;;;;5091812;28;20071;-83
2022/01/04 05:20:08;;;;;;;22.88;12.77;;;8.00;99.90;;;;;;5075147;28;20035;-83
2022/01/04 05:22:34;;;;;;;30.42;15.05;;;8.10;99.90;;;;;;5074828;28;20040;-83
2022/01/04 05:24:59;;;;;;;31.83;16.63;;;8.10;99.90;;;;;;5075579;28;20093;-83
2022/01/04 05:27:25;;;;;;;29.92;14.18;;;8.00;99.90;;;;;;5091760;28;20046;-83
2022/01/04 05:29:50;;;;;;;26.08;13.82;;;8.10;99.90;;;;;;5091737;28;20407;-84
2022/01/04 05:32:16;;;;;;;24.35;13.60;;;8.10;99.90;;;;;;5091714;28;20386;-84
2022/01/04 05:34:42;;;;;;;29.63;13.77;;;8.10;99.90;;;;;;5074706;28;20502;-84
2022/01/04 05:37:08;;;;;;;31.88;15.68;;;8.10;99.90;;;;;;5074482;28;20039;-84
2022/01/04 05:39:34;;;;;;;26.45;13.32;;;8.10;99.90;;;;;;5074804;28;20539;-84
2022/01/04 05:41:59;;;;;;;34.15;14.63;;;8.10;99.90;;;;;;5091394;28;20051;-84
2022/01/04 05:44:25;;;;;;;31.85;16.17;;;8.10;99.90;;;;;;5091102;28;20036;-84
2022/01/04 05:46:50;;;;;;;28.73;14.48;;;8.10;99.90;;;;;;5074528;28;20410;-83
2022/01/04 05:49:16;;;;;;;27.27;14.50;;;8.10;99.90;;;;;;5074646;28;20328;-84
2022/01/04 05:51:43;;;;;;;25.65;13.95;;;8.10;99.90;;;;;;5074360;28;20187;-84
2022/01/04 05:54:09;;;;;;;35.70;13.57;;;8.10;99.90;;;;;;5074790;28;20477;-83
2022/01/04 05:56:35;;;;;;;37.28;14.68;;;8.10;99.90;;;;;;5091352;28;20043;-83
2022/01/04 05:59:00;;;;;;;31.73;15.20;;;8.10;99.90;;;;;;5091445;28;20040;-82
2022/01/04 06:01:26;;;;;;;27.17;13.63;;;8.10;99.90;;;;;;5091126;28;20417;-84
2022/01/04 06:03:51;;;;;;;28.20;13.82;;;8.10;99.90;;;;;;5090943;28;20032;-83
2022/01/04 06:06:18;;;;;;;29.95;13.45;;;8.10;99.90;;;;;;5091002;28;20109;-83
2022/01/04 06:08:44;;;;;;;25.02;14.52;;;8.10;99.90;;;;;;5074826;28;20494;-83
2022/01/04 06:11:29;;;;;;;26.20;14.27;;;8.10;99.90;;;;;;5074460;28;20066;-83
2022/01/04 06:16:38;;;;;;;26.20;12.93;;;8.00;99.90;;;;;;5090459;28;20491;-83
2022/01/04 06:19:04;;;;;;;25.80;13.93;;;8.00;99.90;;;;;;5090902;28;20036;-83
2022/01/04 06:21:30;;;;;;;28.38;13.05;;;8.00;99.90;;;;;;5073788;28;20047;-84
2022/01/04 06:23:55;;;;;;;31.17;15.43;;;8.00;99.90;;;;;;5074147;28;20044;-83
2022/01/04 06:26:21;;;;;;;30.77;13.77;;;7.90;99.90;;;;;;5091279;28;20044;-85
2022/01/04 06:28:46;;;;;;;23.08;13.48;;;7.90;99.90;;;;;;5077679;28;20046;-83
2022/01/04 06:31:12;;;;;;;22.98;13.02;;;7.90;99.90;;;;;;5094407;28;20040;-83
2022/01/04 06:33:39;;;;;;;27.55;14.88;;;7.90;99.90;;;;;;5077588;28;20032;-83
2022/01/04 06:36:05;;;;;;;30.00;16.02;;;7.90;99.90;;;;;;5094413;28;20047;-83
2022/01/04 06:38:30;;;;;;;30.23;14.00;;;8.00;99.90;;;;;;5094625;28;20032;-83
2022/01/04 06:40:56;;;;;;;30.15;11.93;;;7.90;99.90;;;;;;5094081;28;20042;-83
2022/01/04 06:43:21;;;;;;;30.10;14.70;;;8.00;99.90;;;;;;5094145;28;20115;-83
2022/01/04 06:45:47;;;;;;;24.45;13.18;;;8.00;99.90;;;;;;5094049;28;20128;-83
2022/01/04 06:48:12;;;;;;;31.08;14.35;;;8.00;99.90;;;;;;5077578;28;20093;-82
2022/01/04 06:50:38;;;;;;;22.75;12.65;;;8.00;99.90;;;;;;5077089;28;20043;-83
2022/01/04 06:53:04;;;;;;;27.85;12.68;;;8.00;99.90;;;;;;5077128;28;20059;-83
2022/01/04 06:55:29;;;;;;;30.58;13.23;;;8.00;99.90;;;;;;5094132;28;20067;-84
2022/01/04 06:57:55;;;;;;;31.23;13.73;;;8.00;99.90;;;;;;5094886;28;20443;-84
2022/01/04 07:00:21;;;;;;;24.73;12.88;;;8.00;99.90;;;;;;5077063;28;20513;-84
2022/01/04 07:02:46;;;;;;;23.20;11.93;;;8.00;99.90;;;;;;5076519;28;20032;-84
2022/01/04 07:05:12;;;;;;;23.08;12.10;;;7.90;99.90;;;;;;5093808;28;20074;-85
2022/01/04 07:07:38;;;;;;;23.45;13.35;;;8.00;99.90;;;;;;5093612;28;20040;-84
2022/01/04 07:10:04;;;;;;;30.38;12.85;;;7.90;99.90;;;;;;5094214;28;20040;-83
2022/01/04 07:12:29;;;;;;;24.27;11.82;;;7.90;99.90;;;;;;5093451;28;20040;-84
2022/01/04 07:14:55;;;;;;;22.50;12.60;;;7.90;99.90;;;;;;5076769;28;20051;-84
2022/01/04 07:17:20;;;;;;;25.50;13.35;;;7.90;99.90;;;;;;5076372;28;20040;-85
2022/01/04 07:19:47;;;;;;;28.08;13.25;;;7.90;99.90;;;;;;5076626;28;20028;-83
2022/01/04 07:22:12;;;;;;;29.23;13.93;;;7.90;99.90;;;;;;5093314;28;20039;-84
2022/01/04 07:24:38;;;;;;;25.23;14.77;;;7.90;99.90;;;;;;5073472;28;20063;-83
2022/01/04 07:27:05;;;;;;;28.45;15.07;;;7.90;99.90;;;;;;5056896;28;20178;-84
2022/01/04 07:29:30;;;;;;;30.65;14.45;;;7.90;99.90;;;;;;5073796;28;20075;-83
2022/01/04 07:31:56;;;;;;;25.00;13.63;;;7.80;99.90;;;;;;5093583;28;20506;-84
2022/01/04 07:34:22;;;;;;;27.52;15.05;;;7.80;99.90;;;;;;5093276;28;20036;-84
2022/01/04 07:36:47;;;;;;;27.50;13.05;;;7.80;99.90;;;;;;5076511;28;20043;-84
2022/01/04 07:39:13;;;;;;;25.45;12.80;;;7.80;99.90;;;;;;5092580;28;20040;-84
2022/01/04 07:41:38;;;;;;;25.88;13.75;;;7.80;99.90;;;;;;5076363;28;20432;-84
2022/01/04 07:44:05;;;;;;;25.88;15.02;;;7.70;99.90;;;;;;5075811;28;20036;-85
2022/01/04 07:46:30;;;;;;;31.85;15.30;;;7.80;99.90;;;;;;5092869;28;20089;-84
2022/01/04 07:48:56;;;;;;;29.20;15.15;;;7.80;99.90;;;;;;5093208;28;20486;-84
2022/01/04 07:51:22;;;;;;;30.50;18.33;;;7.80;99.90;;;;;;5093422;28;20043;-85
2022/01/04 07:53:47;;;;;;;33.17;17.05;;;7.80;99.90;;;;;;5092899;28;20100;-84
2022/01/04 07:56:13;;;;;;;30.27;15.48;;;7.80;99.90;;;;;;5075799;28;20051;-84
2022/01/04 07:58:38;;;;;;;34.92;17.50;;;7.90;99.90;;;;;;5079347;28;20047;-85
2022/01/04 08:01:04;;;;;;;28.02;15.15;;;7.90;99.90;;;;;;5063853;28;20088;-84
2022/01/04 08:03:29;;;;;;;27.83;14.30;;;7.90;99.90;;;;;;5092492;28;20531;-85
2022/01/04 08:05:56;;;;;;;23.77;12.15;;;8.00;99.90;;;;;;5075713;28;20035;-85
2022/01/04 08:08:21;;;;;;;22.23;12.93;;;7.90;99.90;;;;;;5075822;28;20051;-84
2022/01/04 08:10:48;;;;;;;23.70;12.73;;;7.90;99.90;;;;;;5092622;28;20521;-85
2022/01/04 08:13:14;;;;;;;24.27;12.88;;;7.90;99.90;;;;;;5075476;28;20039;-84
2022/01/04 08:15:39;;;;;;;22.00;12.77;;;7.90;99.90;;;;;;5092068;28;20040;-84
2022/01/04 08:18:05;;;;;;;23.85;11.73;;;7.90;99.90;;;;;;5092163;28;20111;-85
2022/01/04 08:20:30;;;;;;;17.90;12.32;;;7.90;99.90;;;;;;5081140;28;20035;-83
2022/01/04 08:22:57;;;;;;;23.92;12.32;;;7.90;99.90;;;;;;5091998;28;20043;-85
2022/01/04 08:25:23;;;;;;;26.02;14.02;;;7.90;99.90;;;;;;5074755;28;20032;-84
2022/01/04 08:27:48;;;;;;;22.50;13.70;;;8.00;99.90;;;;;;5075102;28;20074;-84
2022/01/04 08:30:15;;;;;;;30.38;15.00;;;8.00;99.90;;;;;;5075700;28;20028;-84
2022/01/04 08:32:41;;;;;;;27.85;16.48;;;7.90;99.90;;;;;;5075275;28;20414;-84
2022/01/04 08:35:08;;;;;;;27.60;15.88;;;8.00;99.90;;;;;;5075176;28;20040;-83
2022/01/04 08:37:34;;;;;;;32.90;15.82;;;8.00;99.90;;;;;;5091631;28;20036;-84
2022/01/04 08:39:59;;;;;;;29.58;17.17;;;8.00;99.90;;;;;;5092112;28;20508;-84
2022/01/04 08:42:25;;;;;;;26.52;15.15;;;8.00;99.90;;;;;;5083817;28;20043;-84
2022/01/04 08:44:53;;;;;;;31.60;17.75;;;8.00;99.90;;;;;;5072198;28;20044;-84
2022/01/04 08:47:19;;;;;;;30.50;16.02;;;8.00;99.90;;;;;;5074865;28;20039;-84
2022/01/04 08:49:44;;;;;;;33.25;17.48;;;8.00;99.90;;;;;;5087392;28;20036;-83
2022/01/04 08:52:10;;;;;;;30.55;18.38;;;8.00;99.90;;;;;;5075806;28;20064;-83
2022/01/04 08:54:36;;;;;;;21.33;12.68;;;8.00;99.90;;;;;;5075309;28;20036;-83
2022/01/04 08:57:02;;;;;;;7.40;3.05;;;7.90;99.90;;;;;;5094189;28;20044;-83
2022/01/04 08:59:28;;;;;;;10.43;4.28;;;7.80;99.90;;;;;;5076762;28;20048;-82
2022/01/04 09:01:56;;;;;;;6.78;3.45;;;7.60;99.90;;;;;;5093071;28;20040;-82
2022/01/04 09:04:21;;;;;;;9.57;3.70;;;7.40;99.90;;;;;;5074923;28;20505;-82
2022/01/04 09:06:48;;;;;;;13.32;5.43;;;7.30;99.90;;;;;;5075269;28;20081;-83
2022/01/04 09:09:13;;;;;;;9.18;4.78;;;7.40;99.90;;;;;;5071102;28;20410;-83
2022/01/04 09:11:39;;;;;;;17.02;7.00;;;7.40;99.90;;;;;;5086673;28;20043;-83
2022/01/04 09:19:22;;;;;;;;;;;7.50;99.90;;;;;;5083947;28;20083;-83
2022/01/04 09:21:49;;;;;;;;;;;7.50;99.90;;;;;;5092689;28;19916;-82
2022/01/04 09:24:14;;;;;;;18.52;8.35;;;7.50;99.90;;;;;;5092559;28;19962;-82
2022/01/04 09:26:40;;;;;;;13.50;6.28;;;7.50;99.90;;;;;;5090855;28;20040;-83
2022/01/04 09:29:06;;;;;;;12.80;6.25;;;7.50;99.90;;;;;;5092577;28;20048;-82
2022/01/04 09:31:31;;;;;;;89.88;61.50;;;7.50;99.90;;;;;;5091643;28;20079;-82
2022/01/04 09:33:59;;;;;;;9.38;3.88;;;7.40;99.90;;;;;;5090947;28;20040;-82
2022/01/04 09:36:44;;;;;;;15.93;2.83;;;7.40;99.90;;;;;;5074019;28;20032;-82
2022/01/04 09:39:18;;;;;;;3.63;1.70;;;7.30;99.90;;;;;;5092055;28;20402;-82
2022/01/04 09:41:44;;;;;;;6.00;1.73;;;7.20;99.90;;;;;;5092512;28;20383;-82
2022/01/04 09:44:11;;;;;;;3.67;0.90;;;7.20;99.90;;;;;;5092184;28;20293;-81
2022/01/04 09:46:38;;;;;;;3.70;1.25;;;7.20;99.90;;;;;;5091747;28;20386;-82
2022/01/04 09:49:04;;;;;;;6.28;1.00;;;7.10;99.90;;;;;;5091514;28;20040;-82
2022/01/04 09:51:31;;;;;;;3.50;0.80;;;7.10;99.90;;;;;;5091947;28;20039;-82
2022/01/04 09:53:57;;;;;;;5.85;1.38;;;7.10;99.90;;;;;;5074755;28;20036;-82
2022/01/04 09:56:23;;;;;;;8.35;0.88;;;7.10;99.90;;;;;;5091608;28;20394;-82
2022/01/04 09:58:48;;;;;;;11.98;1.98;;;7.10;99.90;;;;;;5092225;28;20036;-82
2022/01/04 10:01:32;;;;;;;6.88;0.50;;;7.10;99.90;;;;;;5075325;28;20046;-82
2022/01/04 10:03:58;;;;;;;4.22;0.52;;;7.10;99.90;;;;;;5096284;28;20040;-82
2022/01/04 10:06:25;;;;;;;7.55;1.20;;;7.10;99.90;;;;;;5079366;28;20585;-82
2022/01/04 10:08:56;;;;;;;4.93;0.82;;;7.10;99.90;;;;;;5096816;28;20100;-81
2022/01/04 10:11:33;;;;;;;5.88;0.70;;;7.10;99.90;;;;;;5111008;28;20047;-81
2022/01/04 10:14:00;;;;;;;4.13;0.68;;;7.00;99.90;;;;;;5113847;28;20036;-82
2022/01/04 10:16:26;;;;;;;4.00;0.85;;;7.00;99.90;;;;;;5111636;28;20036;-80
2022/01/04 10:18:53;;;;;;;2.00;0.63;;;7.00;99.90;;;;;;5093850;28;20086;-80
2022/01/04 10:21:19;;;;;;;2.83;1.00;;;7.00;99.90;;;;;;5107449;28;20036;-81
2022/01/04 10:23:54;;;;;;;4.10;1.95;;;6.90;99.90;;;;;;5092836;28;20070;-81
2022/01/04 10:26:37;;;;;;;3.45;1.00;;;7.00;99.90;;;;;;5104819;28;20044;-82
2022/01/04 10:29:20;;;;;;;4.32;0.50;;;6.90;99.90;;;;;;5083068;28;20036;-81
2022/01/04 10:31:46;;;;;;;4.60;0.80;;;7.00;99.90;;;;;;5099204;28;20036;-82
2022/01/04 10:34:11;;;;;;;5.82;0.40;;;6.90;99.90;;;;;;5099955;28;20109;-83
2022/01/04 10:36:38;;;;;;;4.28;0.70;;;6.90;99.90;;;;;;5099666;28;20032;-81
2022/01/04 10:39:11;;;;;;;2.10;0.40;;;7.00;99.90;;;;;;5099993;28;20036;-81
2022/01/04 10:41:36;;;;;;;5.38;0.55;;;7.00;99.90;;;;;;5099282;28;20040;-83
2022/01/04 10:44:09;;;;;;;3.88;0.98;;;7.00;99.90;;;;;;5098050;28;20044;-82
2022/01/04 10:46:42;;;;;;;3.45;1.33;;;6.90;99.90;;;;;;5082888;28;20055;-81
2022/01/04 10:49:23;;;;;;;3.10;0.40;;;6.90;99.90;;;;;;5082273;28;20050;-81
2022/01/04 10:52:08;;;;;;;4.05;0.30;;;6.90;99.90;;;;;;5113637;28;20065;-81
2022/01/04 10:54:34;;;;;;;8.43;0.55;;;6.80;99.90;;;;;;5099460;28;20047;-81
2022/01/04 10:57:05;;;;;;;6.88;1.15;;;6.70;99.90;;;;;;5096888;28;20032;-81
2022/01/04 10:59:31;;;;;;;8.65;1.77;;;6.60;99.90;;;;;;5096188;28;20452;-81
2022/01/04 11:01:56;;;;;;;2.97;1.00;;;6.60;99.90;;;;;;5082274;28;20040;-82
2022/01/04 11:04:22;;;;;;;2.85;1.30;;;6.50;99.90;;;;;;5097802;28;20126;-80
2022/01/04 11:06:49;;;;;;;5.15;0.15;;;6.50;99.90;;;;;;5082675;28;20044;-82
2022/01/04 11:09:18;;;;;;;4.28;0.38;;;6.40;99.90;;;;;;5097496;28;20045;-82
2022/01/04 11:11:44;;;;;;;5.03;0.43;;;6.30;99.90;;;;;;5081619;28;20505;-80
2022/01/04 11:14:13;;;;;;;4.15;1.27;;;6.30;99.90;;;;;;5080262;28;20040;-81
2022/01/04 11:16:40;;;;;;;4.55;0.32;;;6.30;99.90;;;;;;5097706;28;20040;-81
2022/01/04 11:19:07;;;;;;;2.00;0.28;;;6.30;99.90;;;;;;5097676;28;20044;-82
2022/01/04 11:21:35;;;;;;;2.35;0.20;;;6.30;99.90;;;;;;5097479;28;20533;-81
2022/01/04 11:24:04;;;;;;;3.17;0.25;;;6.20;99.90;;;;;;5097570;28;20044;-82
2022/01/04 11:26:30;;;;;;;5.38;0.73;;;6.10;99.90;;;;;;5096909;28;20569;-83
2022/01/04 11:28:57;;;;;;;2.30;0.20;;;6.20;99.90;;;;;;5081182;28;20067;-82
2022/01/04 11:31:41;;;;;;;3.05;0.32;;;5.90;99.90;;;;;;5097499;28;20055;-82
2022/01/04 11:34:06;;;;;;;4.88;0.70;;;6.00;99.90;;;;;;5098347;28;20111;-82
2022/01/04 11:36:41;;;;;;;5.40;1.10;;;6.00;99.90;;;;;;5079799;28;20075;-82
2022/01/04 11:39:28;;;;;;;10.82;3.53;;;6.00;99.90;;;;;;5098843;28;20036;-82
2022/01/04 11:41:55;;;;;;;8.63;4.25;;;5.90;99.90;;;;;;5077515;28;20121;-83
2022/01/04 11:44:24;;;;;;;20.23;9.07;;;5.90;99.90;;;;;;5079743;28;20039;-82
2022/01/04 11:47:08;;;;;;;4.22;1.17;;;6.10;99.90;;;;;;5097210;28;20486;-81
2022/01/04 11:49:36;;;;;;;15.13;7.30;;;6.20;99.90;;;;;;5078958;28;20036;-82
2022/01/04 11:52:04;;;;;;;24.67;10.45;;;6.20;99.90;;;;;;5096532;28;20055;-82
2022/01/04 11:54:31;;;;;;;4.05;0.30;;;6.20;99.90;;;;;;5078950;28;20036;-82
2022/01/04 11:56:59;;;;;;;5.10;0.82;;;6.30;99.90;;;;;;5080364;28;20043;-83
2022/01/04 11:59:37;;;;;;;5.00;1.48;;;6.40;99.90;;;;;;5096931;28;20481;-82
2022/01/04 12:02:39;;;;;;;2.58;1.38;;;6.30;99.90;;;;;;5099355;28;20123;-82
2022/01/04 12:05:08;;;;;;;2.00;0.10;;;6.40;99.90;;;;;;5101205;28;20552;-82
2022/01/04 12:07:45;;;;;;;3.97;0.13;;;6.40;99.90;;;;;;5080257;28;20092;-83
2022/01/04 12:10:20;;;;;;;3.05;0.30;;;6.20;99.90;;;;;;5080682;28;20453;-82
2022/01/04 12:13:24;;;;;;;2.92;0.70;;;6.10;99.90;;;;;;5096799;28;20044;-82
2022/01/04 12:15:51;;;;;;;13.32;2.80;;;6.00;99.90;;;;;;5005917;28;20099;-83
2022/01/04 12:18:23;;;;;;;6.10;0.70;;;5.70;99.90;;;;;;5002246;28;20041;-82
2022/01/04 12:20:53;;;;;;;1.33;0.20;;;5.60;99.90;;;;;;5043069;28;20047;-83
2022/01/04 12:23:33;;;;;;;1.13;0.45;;;5.90;99.90;;;;;;5096071;28;20057;-83
2022/01/04 12:26:04;;;;;;;3.08;0.38;;;5.40;99.90;;;;;;5095480;28;20036;-84
2022/01/04 12:28:40;;;;;;;2.85;0.10;;;5.00;99.90;;;;;;5096204;28;20052;-83
2022/01/04 12:33:41;;;;;;;6.73;0.90;;;4.90;99.90;;;;;;5097007;28;20047;-83
2022/01/04 12:36:08;;;;;;;8.18;0.50;;;4.90;99.90;;;;;;5079528;28;20788;-83
2022/01/04 12:38:34;;;;;;;2.50;0.20;;;5.00;99.90;;;;;;5080103;28;20081;-83
2022/01/04 12:41:01;;;;;;;4.43;0.15;;;5.10;99.90;;;;;;5096539;28;20039;-81
2022/01/04 12:43:28;;;;;;;2.10;0.22;;;5.20;99.90;;;;;;5097190;28;20047;-83
2022/01/04 12:46:02;;;;;;;1.88;0.93;;;5.30;99.90;;;;;;5095439;28;20044;-83
2022/01/04 12:48:51;;;;;;;3.33;0.20;;;5.40;99.90;;;;;;5098141;28;20418;-83
2022/01/04 12:51:34;;;;;;;3.85;0.80;;;5.70;99.90;;;;;;5079267;28;20076;-83
2022/01/04 12:54:12;;;;;;;3.28;0.10;;;5.90;99.90;;;;;;5096319;28;20043;-82
2022/01/04 12:56:42;;;;;;;1.02;0.20;;;6.00;99.90;;;;;;5079794;28;20395;-82
2022/01/04 12:59:09;;;;;;;4.50;0.82;;;6.30;99.90;;;;;;5095973;28;20044;-83